Time;durP1;ratioP1;P1;durP2;ratioP2;P2;SDS_P1;SDS_P2;PMS_P1;PMS_P2;Temp;Humidity;BMP_temperature;BMP_pressure;BME280_temperature;BME280_humidity;BME280_pressure;Samples;Min_cycle;Max_cycle;Signal;HPM_P1;HPM_P2
2022/01/31 00:01:01;;;;;;;44.55;30.58;;;;;;;4.96;75.40;98610.44;5089927;28;20039;-61
2022/01/31 00:03:26;;;;;;;44.13;31.08;;;;;;;4.95;75.73;98600.28;5091811;28;20024;-62
2022/01/31 00:05:52;;;;;;;47.75;32.53;;;;;;;5.05;76.75;98614.13;5093974;28;20814;-61
2022/01/31 00:08:23;;;;;;;52.10;33.70;;;;;;;5.15;78.13;98609.16;5081114;28;20023;-61
2022/01/31 00:10:48;;;;;;;48.45;32.30;;;;;;;5.34;78.09;98608.63;5052123;27;20036;-61
2022/01/31 00:13:20;;;;;;;48.38;33.53;;;;;;;5.40;78.31;98592.69;5092778;28;20034;-62
2022/01/31 00:15:53;;;;;;;48.05;32.28;;;;;;;5.18;76.19;98588.28;5078263;28;20032;-61
2022/01/31 00:18:18;;;;;;;48.35;31.73;;;;;;;5.23;75.66;98604.25;5093539;28;20024;-62
2022/01/31 00:20:44;;;;;;;46.15;31.33;;;;;;;5.03;75.83;98590.22;5089658;28;20081;-61
2022/01/31 00:23:09;;;;;;;48.28;31.65;;;;;;;4.92;77.92;98600.47;5097838;28;20027;-61
2022/01/31 00:25:34;;;;;;;46.78;32.70;;;;;;;5.08;78.21;98595.88;5094085;28;20039;-61
2022/01/31 00:28:00;;;;;;;48.85;33.03;;;;;;;5.03;77.65;98600.53;5093141;28;20530;-62
2022/01/31 00:30:25;;;;;;;48.45;32.92;;;;;;;4.97;77.73;98599.22;5059192;27;20035;-62
2022/01/31 00:32:51;;;;;;;50.33;33.15;;;;;;;4.93;76.92;98597.78;5095594;28;20047;-61
2022/01/31 00:35:16;;;;;;;44.53;31.23;;;;;;;4.86;75.67;98572.59;5094671;28;20485;-61
2022/01/31 00:37:42;;;;;;;41.15;30.73;;;;;;;4.64;75.48;98574.09;5092529;28;20035;-61
2022/01/31 00:40:09;;;;;;;48.47;31.60;;;;;;;4.38;76.30;98565.59;5088547;28;20176;-62
2022/01/31 00:42:35;;;;;;;50.75;31.63;;;;;;;4.37;76.30;98549.34;5077351;28;20513;-62
2022/01/31 00:47:37;;;;;;;49.03;31.98;;;;;;;4.10;77.41;98557.22;5096594;28;20032;-62
2022/01/31 00:50:08;;;;;;;44.38;31.17;;;;;;;4.04;77.88;98552.50;5041793;28;20038;-61
2022/01/31 00:52:34;;;;;;;45.08;30.85;;;;;;;4.10;77.19;98548.69;5096063;28;20055;-61
2022/01/31 00:55:00;;;;;;;47.10;31.73;;;;;;;4.31;76.94;98541.22;5095874;28;20032;-61
2022/01/31 00:57:26;;;;;;;46.75;31.42;;;;;;;4.33;76.28;98532.47;5097216;28;20359;-61
2022/01/31 00:59:51;;;;;;;46.10;32.25;;;;;;;4.30;76.58;98558.41;5093425;28;20088;-61
2022/01/31 01:02:18;;;;;;;45.83;33.08;;;;;;;4.15;77.20;98551.75;5086056;28;20024;-62
2022/01/31 01:04:44;;;;;;;47.38;32.60;;;;;;;3.94;78.18;98547.16;5098203;28;20042;-61
2022/01/31 01:07:09;;;;;;;52.78;34.20;;;;;;;4.04;77.96;98549.91;5096105;28;20477;-61
2022/01/31 01:09:35;;;;;;;50.67;33.60;;;;;;;4.04;77.93;98555.06;5049990;27;20026;-63
2022/01/31 01:12:00;;;;;;;48.72;33.42;;;;;;;3.80;77.86;98529.28;5064446;27;20032;-61
2022/01/31 01:14:26;;;;;;;45.90;32.05;;;;;;;3.99;78.39;98541.69;5099625;28;20641;-61
2022/01/31 01:16:51;;;;;;;51.03;34.67;;;;;;;3.91;78.85;98525.97;5077126;28;20027;-61
2022/01/31 01:19:16;;;;;;;46.00;33.42;;;;;;;4.01;78.20;98520.06;5094165;28;20441;-62
2022/01/31 01:21:42;;;;;;;49.58;32.30;;;;;;;4.01;77.58;98478.09;5103240;28;20098;-61
2022/01/31 01:24:07;;;;;;;45.97;31.63;;;;;;;4.06;77.31;98460.56;5094980;28;20655;-61
2022/01/31 01:26:33;;;;;;;43.95;31.40;;;;;;;4.42;76.90;98494.97;5069116;28;20024;-62
2022/01/31 01:28:58;;;;;;;48.78;31.67;;;;;;;4.38;76.40;98494.34;5099829;28;20038;-62
2022/01/31 01:31:24;;;;;;;50.83;32.83;;;;;;;3.94;77.13;98508.56;5052400;28;20046;-61
2022/01/31 01:33:49;;;;;;;45.78;31.65;;;;;;;3.99;76.82;98495.38;5083484;28;20035;-62
2022/01/31 01:36:15;;;;;;;52.15;33.63;;;;;;;4.09;76.34;98496.41;5097932;28;20027;-61
2022/01/31 01:38:40;;;;;;;47.35;32.95;;;;;;;4.09;75.79;98498.13;5082645;28;20032;-61
2022/01/31 01:41:06;;;;;;;47.65;32.20;;;;;;;3.76;76.50;98491.81;5104023;28;20096;-61
2022/01/31 01:43:32;;;;;;;47.60;32.05;;;;;;;3.96;75.74;98478.41;5102519;28;20088;-61
2022/01/31 01:45:58;;;;;;;50.08;32.60;;;;;;;3.61;76.29;98427.66;5080414;28;20028;-61
2022/01/31 01:48:24;;;;;;;54.30;34.83;;;;;;;4.09;76.24;98478.38;5094088;28;20028;-62
2022/01/31 01:50:49;;;;;;;47.67;32.00;;;;;;;3.79;75.24;98417.00;5031978;28;20028;-61
2022/01/31 01:53:15;;;;;;;50.15;32.60;;;;;;;3.80;75.91;98458.06;5096838;28;20030;-61
2022/01/31 01:55:42;;;;;;;55.03;33.65;;;;;;;3.69;76.16;98462.28;5097179;28;20506;-61
2022/01/31 01:58:15;;;;;;;49.15;32.58;;;;;;;3.34;76.56;98417.50;5093906;28;20078;-61
2022/01/31 02:00:50;;;;;;;52.05;32.92;;;;;;;3.60;76.84;98459.44;5080235;28;20032;-62
2022/01/31 02:03:19;;;;;;;52.92;32.88;;;;;;;3.69;76.13;98470.84;5091795;28;20072;-61
2022/01/31 02:05:46;;;;;;;51.78;33.60;;;;;;;3.74;75.41;98467.94;5086061;28;20028;-62
2022/01/31 02:08:13;;;;;;;48.85;32.95;;;;;;;3.74;75.84;98455.09;5086333;28;20385;-60
2022/01/31 02:10:39;;;;;;;54.47;32.78;;;;;;;3.75;75.15;98443.88;5047944;28;20019;-61
2022/01/31 02:13:06;;;;;;;52.72;32.70;;;;;;;3.20;76.27;98394.47;5090885;28;20115;-61
2022/01/31 02:15:33;;;;;;;52.08;34.05;;;;;;;3.58;75.86;98442.47;5096109;28;20043;-62
2022/01/31 02:17:58;;;;;;;53.58;33.97;;;;;;;3.70;75.71;98436.47;5089394;28;20035;-60
2022/01/31 02:20:23;;;;;;;50.05;33.22;;;;;;;3.37;76.65;98425.00;5093533;28;20668;-62
2022/01/31 02:22:49;;;;;;;51.50;33.45;;;;;;;3.54;76.25;98423.03;5097209;28;20180;-61
2022/01/31 02:25:14;;;;;;;52.28;33.78;;;;;;;3.56;75.88;98411.72;5093598;28;20883;-62
2022/01/31 02:27:40;;;;;;;53.40;33.85;;;;;;;3.53;76.10;98398.25;5078939;28;21547;-62
2022/01/31 02:30:09;;;;;;;54.10;34.30;;;;;;;3.47;76.55;98420.88;5059992;28;20420;-62
2022/01/31 02:32:35;;;;;;;51.90;33.63;;;;;;;3.12;76.67;98382.16;5098169;28;20024;-61
2022/01/31 02:35:01;;;;;;;52.22;34.15;;;;;;;3.36;76.49;98423.34;5093716;28;20063;-61
2022/01/31 02:37:26;;;;;;;54.25;34.15;;;;;;;3.45;76.65;98429.63;5093836;28;20234;-60
2022/01/31 02:39:52;;;;;;;53.33;34.10;;;;;;;3.53;76.25;98417.06;5101723;28;20061;-61
2022/01/31 02:42:17;;;;;;;52.88;35.35;;;;;;;3.54;76.12;98405.03;5097631;28;20616;-61
2022/01/31 02:44:44;;;;;;;50.67;32.08;;;;;;;3.43;76.41;98396.31;5099291;28;20097;-62
2022/01/31 02:47:24;;;;;;;54.92;34.70;;;;;;;3.49;75.88;98407.94;5095797;28;20032;-60
2022/01/31 02:49:56;;;;;;;50.88;32.97;;;;;;;3.52;75.23;98402.56;5084428;28;20040;-61
2022/01/31 02:52:23;;;;;;;57.92;33.40;;;;;;;3.41;75.99;98398.16;5050147;28;20097;-61
2022/01/31 02:54:49;;;;;;;56.45;33.50;;;;;;;3.42;75.72;98404.13;5100826;28;20111;-61
2022/01/31 02:57:14;;;;;;;55.05;34.78;;;;;;;3.50;75.46;98399.28;5082148;28;20157;-61
2022/01/31 02:59:40;;;;;;;54.13;33.50;;;;;;;3.47;75.61;98405.44;5101352;28;20044;-61
2022/01/31 03:02:05;;;;;;;53.30;33.58;;;;;;;3.47;75.80;98392.59;5103456;28;20039;-61
2022/01/31 03:04:31;;;;;;;50.38;32.20;;;;;;;3.52;75.80;98364.00;5090181;28;20028;-61
2022/01/31 03:06:56;;;;;;;54.45;35.35;;;;;;;3.17;76.11;98302.19;5095010;28;20475;-61
2022/01/31 03:09:22;;;;;;;53.90;34.13;;;;;;;3.37;76.83;98344.50;5098972;28;20735;-61
2022/01/31 03:11:47;;;;;;;54.75;34.78;;;;;;;3.41;76.86;98366.47;5054924;27;20785;-60
2022/01/31 03:14:16;;;;;;;54.35;33.42;;;;;;;3.43;76.21;98357.75;5094825;28;20061;-61
2022/01/31 03:16:44;;;;;;;52.35;32.92;;;;;;;3.41;76.46;98367.31;5102184;28;20035;-61
2022/01/31 03:19:09;;;;;;;54.20;33.92;;;;;;;3.30;76.17;98346.66;5102530;28;20479;-61
2022/01/31 03:21:35;;;;;;;55.85;35.08;;;;;;;3.11;76.91;98348.84;5094300;28;20123;-61
2022/01/31 03:24:01;;;;;;;53.90;34.65;;;;;;;3.11;76.53;98336.81;5100269;28;20030;-61
2022/01/31 03:26:27;;;;;;;56.35;34.40;;;;;;;3.21;76.46;98327.56;5093709;28;20430;-61
2022/01/31 03:28:53;;;;;;;56.22;34.53;;;;;;;2.87;76.00;98263.06;5100214;28;20019;-61
2022/01/31 03:31:20;;;;;;;62.58;36.08;;;;;;;3.00;76.93;98280.22;5060854;27;20126;-61
2022/01/31 03:33:46;;;;;;;60.92;34.40;;;;;;;2.73;77.04;98240.09;5100770;27;20020;-61
2022/01/31 03:36:12;;;;;;;55.15;33.33;;;;;;;3.03;76.72;98288.53;5087907;28;20383;-61
2022/01/31 03:38:40;;;;;;;52.33;33.10;;;;;;;3.16;77.03;98310.81;5097765;28;20106;-62
2022/01/31 03:41:14;;;;;;;55.50;33.60;;;;;;;3.13;77.15;98309.28;5099677;28;20051;-61
2022/01/31 03:43:39;;;;;;;52.47;33.08;;;;;;;2.91;77.54;98298.84;5099178;28;20625;-61
2022/01/31 03:46:05;;;;;;;54.08;34.13;;;;;;;2.95;77.54;98284.84;5099306;28;20028;-61
2022/01/31 03:48:31;;;;;;;55.78;34.90;;;;;;;2.88;77.23;98282.72;5100554;28;20110;-61
2022/01/31 03:50:58;;;;;;;55.45;35.42;;;;;;;2.44;78.04;98234.34;5059477;27;20038;-60
2022/01/31 03:53:23;;;;;;;54.40;33.90;;;;;;;2.78;78.07;98261.13;5095381;27;20049;-60
2022/01/31 03:55:49;;;;;;;55.95;34.05;;;;;;;2.68;78.81;98278.06;5086238;28;20134;-61
2022/01/31 03:58:14;;;;;;;52.35;33.38;;;;;;;2.80;78.29;98279.81;5086731;28;20035;-61
2022/01/31 04:00:40;;;;;;;49.15;32.42;;;;;;;2.89;77.90;98278.38;5092224;28;20481;-61
2022/01/31 04:03:06;;;;;;;57.92;33.25;;;;;;;2.97;77.93;98278.66;5095973;28;20146;-61
2022/01/31 04:05:31;;;;;;;53.70;33.15;;;;;;;3.02;77.75;98270.66;5080008;28;20020;-60
2022/01/31 04:07:57;;;;;;;52.50;33.67;;;;;;;3.02;77.65;98265.53;5088391;28;20024;-61
2022/01/31 04:10:23;;;;;;;55.35;33.20;;;;;;;2.95;77.72;98266.88;5057913;28;20629;-61
2022/01/31 04:12:48;;;;;;;53.95;34.17;;;;;;;2.62;77.77;98216.88;5096227;28;20050;-60
2022/01/31 04:15:14;;;;;;;57.90;34.58;;;;;;;2.68;78.84;98242.97;5104634;28;20111;-60
2022/01/31 04:17:39;;;;;;;51.15;33.22;;;;;;;2.80;78.30;98254.16;5087108;28;20601;-61
2022/01/31 04:20:07;;;;;;;56.10;33.75;;;;;;;2.82;77.45;98252.28;5087501;28;20142;-60
2022/01/31 04:22:36;;;;;;;52.88;33.53;;;;;;;2.86;77.60;98248.59;5101176;28;20535;-60
2022/01/31 04:25:05;;;;;;;54.67;33.60;;;;;;;2.96;77.30;98256.50;5097578;28;21533;-62
2022/01/31 04:27:43;;;;;;;51.17;33.07;;;;;;;2.92;77.38;98256.81;5093269;27;20031;-60
2022/01/31 04:30:11;;;;;;;56.28;34.10;;;;;;;2.92;77.46;98241.38;5049832;27;20284;-62
2022/01/31 04:32:36;;;;;;;55.78;33.95;;;;;;;2.81;77.69;98232.69;5100826;27;20016;-60
2022/01/31 04:35:02;;;;;;;56.00;33.40;;;;;;;2.89;76.90;98229.59;5094754;28;20484;-61
2022/01/31 04:37:27;;;;;;;50.92;34.00;;;;;;;2.75;77.41;98222.81;5082105;28;20020;-61
2022/01/31 04:39:52;;;;;;;50.92;32.35;;;;;;;2.56;77.79;98200.16;5102103;28;20038;-61
2022/01/31 04:42:18;;;;;;;55.63;34.58;;;;;;;2.82;77.35;98215.53;5091943;28;20027;-60
2022/01/31 04:44:43;;;;;;;57.47;33.08;;;;;;;2.76;77.14;98219.34;5081111;28;20039;-61
2022/01/31 04:47:09;;;;;;;53.67;32.22;;;;;;;2.27;78.31;98197.81;5103412;28;20027;-61
2022/01/31 04:49:35;;;;;;;57.67;32.83;;;;;;;2.19;78.63;98194.94;5103600;28;20039;-61
2022/01/31 04:52:01;;;;;;;53.95;33.38;;;;;;;2.42;77.96;98218.22;5094768;28;20030;-60
2022/01/31 04:54:26;;;;;;;56.70;34.10;;;;;;;2.43;78.17;98215.56;5088801;28;20466;-61
2022/01/31 04:56:52;;;;;;;53.53;32.22;;;;;;;2.58;77.09;98210.34;5098024;28;20066;-60
2022/01/31 04:59:19;;;;;;;54.28;32.85;;;;;;;2.43;77.88;98215.56;5099498;28;20235;-61
2022/01/31 05:01:46;;;;;;;54.80;33.30;;;;;;;2.44;77.72;98203.56;5079094;28;20118;-61
2022/01/31 05:04:12;;;;;;;55.83;32.70;;;;;;;2.57;77.13;98206.91;5102741;28;20137;-60
2022/01/31 05:06:40;;;;;;;59.53;34.75;;;;;;;2.10;78.29;98162.22;5105402;28;20823;-61
2022/01/31 05:09:06;;;;;;;55.55;33.92;;;;;;;2.33;77.76;98206.84;5101113;28;20031;-62
2022/01/31 05:11:32;;;;;;;59.00;34.22;;;;;;;2.47;77.77;98196.47;5076912;28;20023;-60
2022/01/31 05:13:57;;;;;;;65.50;41.50;;;;;;;2.59;77.33;98214.53;5102375;28;20044;-61
2022/01/31 05:16:23;;;;;;;65.70;42.40;;;;;;;2.66;76.88;98210.63;5080284;28;20032;-60
2022/01/31 05:18:48;;;;;;;64.55;42.30;;;;;;;2.46;76.68;98199.13;5095843;28;20500;-61
2022/01/31 05:21:14;;;;;;;57.75;34.20;;;;;;;2.11;77.28;98143.31;5080299;28;20059;-60
2022/01/31 05:23:39;;;;;;;54.15;34.78;;;;;;;2.43;76.75;98169.38;5084291;28;20027;-61
2022/01/31 05:26:05;;;;;;;59.45;34.60;;;;;;;2.20;77.53;98168.34;5099536;28;20050;-61
2022/01/31 05:28:30;;;;;;;58.75;33.75;;;;;;;2.16;78.15;98153.28;5096613;28;20036;-61
2022/01/31 05:30:56;;;;;;;59.17;35.33;;;;;;;2.27;77.54;98138.81;5067267;28;20031;-61
2022/01/31 05:33:21;;;;;;;55.70;34.03;;;;;;;2.46;76.97;98145.25;5079100;28;20020;-61
2022/01/31 05:35:46;;;;;;;57.65;35.20;;;;;;;2.45;77.24;98131.59;5088716;28;20035;-60
2022/01/31 05:38:12;;;;;;;56.83;35.13;;;;;;;2.33;77.20;98113.66;5103848;28;20027;-60
2022/01/31 05:40:38;;;;;;;54.45;34.90;;;;;;;1.93;78.77;98053.06;5087553;27;20039;-62
2022/01/31 05:43:04;;;;;;;56.38;33.17;;;;;;;2.31;78.47;98113.75;5102643;28;20031;-60
2022/01/31 05:45:29;;;;;;;53.70;33.05;;;;;;;2.35;78.25;98107.47;5096506;28;20030;-60
2022/01/31 05:47:55;;;;;;;53.38;33.70;;;;;;;2.28;78.30;98106.25;5092917;28;20028;-61
2022/01/31 05:50:22;;;;;;;53.20;33.17;;;;;;;2.30;77.75;98115.50;5101090;28;20047;-60
2022/01/31 05:52:48;;;;;;;54.08;33.88;;;;;;;2.14;78.29;98106.41;5098454;28;20031;-61
2022/01/31 05:55:13;;;;;;;57.20;34.97;;;;;;;2.23;78.35;98100.66;5086333;28;20046;-61
2022/01/31 05:57:39;;;;;;;58.03;34.42;;;;;;;1.90;79.41;98097.69;5094082;28;20525;-61
2022/01/31 06:00:06;;;;;;;60.00;35.03;;;;;;;1.85;79.37;98098.91;5082140;28;20035;-59
2022/01/31 06:02:31;;;;;;;59.22;35.75;;;;;;;1.77;80.11;98102.00;5092620;28;20391;-60
2022/01/31 06:04:57;;;;;;;59.50;36.10;;;;;;;1.93;79.88;98096.66;5098218;28;20039;-60
2022/01/31 06:07:22;;;;;;;59.90;35.25;;;;;;;1.97;79.60;98102.38;5097576;28;20065;-60
2022/01/31 06:09:48;;;;;;;58.38;35.25;;;;;;;1.95;79.17;98092.22;5098202;28;20038;-61
2022/01/31 06:12:15;;;;;;;59.40;36.63;;;;;;;1.90;79.61;98087.44;5096781;28;20028;-61
2022/01/31 06:14:40;;;;;;;58.63;36.25;;;;;;;1.94;79.21;98090.59;5098950;28;20035;-59
2022/01/31 06:17:06;;;;;;;62.20;36.38;;;;;;;2.00;78.71;98092.75;5092668;28;20024;-60
2022/01/31 06:19:31;;;;;;;60.92;36.08;;;;;;;1.96;78.54;98099.00;5099120;28;20031;-60
2022/01/31 06:21:57;;;;;;;59.85;35.58;;;;;;;1.76;79.04;98079.03;5078407;28;20058;-59
2022/01/31 06:24:23;;;;;;;58.38;35.17;;;;;;;1.62;80.26;98074.81;5098276;28;20070;-60
2022/01/31 06:26:49;;;;;;;58.03;36.67;;;;;;;1.79;79.78;98087.34;5101408;28;20154;-60
2022/01/31 06:29:14;;;;;;;64.85;37.80;;;;;;;1.86;79.01;98086.00;5100908;28;20032;-60
2022/01/31 06:31:40;;;;;;;66.30;37.83;;;;;;;1.78;79.72;98075.41;5079518;28;20132;-60
2022/01/31 06:34:06;;;;;;;62.83;36.70;;;;;;;1.76;78.92;98071.34;5095520;28;20035;-60
2022/01/31 06:36:31;;;;;;;66.70;38.38;;;;;;;1.87;78.78;98063.75;5098464;28;20363;-60
2022/01/31 06:38:56;;;;;;;62.58;37.60;;;;;;;1.68;78.37;98021.41;5074744;28;20047;-60
2022/01/31 06:41:23;;;;;;;70.55;37.67;;;;;;;1.85;78.00;98065.59;5083118;27;20453;-60
2022/01/31 06:43:50;;;;;;;58.50;35.47;;;;;;;2.00;77.84;98074.78;5099276;28;20028;-60
2022/01/31 06:46:15;;;;;;;60.92;33.95;;;;;;;1.91;78.17;98090.81;5090509;28;20031;-60
2022/01/31 06:48:41;;;;;;;56.55;34.08;;;;;;;1.67;78.84;98086.38;5088816;28;20521;-60
2022/01/31 06:51:07;;;;;;;66.25;35.03;;;;;;;1.44;79.88;98059.72;5094814;28;20557;-60
2022/01/31 06:53:33;;;;;;;55.35;32.80;;;;;;;1.69;79.79;98084.53;5084050;28;20070;-60
2022/01/31 06:55:59;;;;;;;54.00;32.42;;;;;;;1.69;79.32;98071.72;5094255;28;20352;-61
2022/01/31 06:58:25;;;;;;;54.25;31.60;;;;;;;1.78;79.32;98070.28;5102902;28;20506;-60
2022/01/31 07:00:51;;;;;;;57.03;33.30;;;;;;;1.76;79.33;98055.94;5074053;28;20082;-60
2022/01/31 07:03:16;;;;;;;52.53;32.53;;;;;;;1.80;79.43;98071.00;5073881;28;20023;-60
2022/01/31 07:05:42;;;;;;;57.35;33.15;;;;;;;1.57;79.45;98020.47;5079770;28;20056;-61
2022/01/31 07:08:08;;;;;;;58.30;34.38;;;;;;;1.96;78.64;98063.13;5078809;28;20024;-61
2022/01/31 07:10:34;;;;;;;61.88;35.95;;;;;;;1.83;78.81;98062.31;5097622;28;20053;-62
2022/01/31 07:13:02;;;;;;;61.33;36.90;;;;;;;1.87;78.90;98072.25;5082327;28;20038;-61
2022/01/31 07:15:27;;;;;;;58.85;37.10;;;;;;;1.44;79.64;98016.19;5090381;28;20023;-61
2022/01/31 07:17:53;;;;;;;60.05;34.47;;;;;;;1.35;79.64;97998.81;5102687;28;20050;-61
2022/01/31 07:20:23;;;;;;;64.22;35.83;;;;;;;1.54;79.58;98052.25;5100502;28;20114;-61
2022/01/31 07:22:55;;;;;;;;;;;;;;;1.72;80.05;98071.53;5105067;28;20038;-62
2022/01/31 07:25:34;;;;;;;58.78;31.45;;;;;;;1.28;81.11;98015.56;5098393;28;20427;-61
2022/01/31 07:28:00;;;;;;;59.67;34.17;;;;;;;1.20;82.17;98012.66;5078589;28;20035;-61
2022/01/31 07:30:26;;;;;;;59.90;34.25;;;;;;;1.17;81.93;98016.25;5094380;28;20051;-61
2022/01/31 07:32:51;;;;;;;58.72;33.80;;;;;;;1.09;82.40;98021.03;5092742;28;20196;-60
2022/01/31 07:35:16;;;;;;;60.40;32.83;;;;;;;1.02;83.68;97996.75;5089317;28;20349;-60
2022/01/31 07:37:42;;;;;;;62.78;33.58;;;;;;;1.22;83.12;97977.53;5086788;28;20040;-60
2022/01/31 07:40:08;;;;;;;57.65;34.28;;;;;;;1.37;82.05;97970.56;5089183;28;20123;-61
2022/01/31 07:42:34;;;;;;;63.58;33.97;;;;;;;1.13;81.58;97948.22;5085275;28;20028;-61
2022/01/31 07:44:59;;;;;;;57.15;33.40;;;;;;;1.18;83.51;97983.78;5092765;28;20080;-61
2022/01/31 07:47:24;;;;;;;60.63;34.78;;;;;;;1.40;82.92;97993.41;5090682;28;20036;-60
2022/01/31 07:49:53;;;;;;;60.53;34.58;;;;;;;1.46;82.86;97972.50;5104505;28;20402;-60
2022/01/31 07:52:18;;;;;;;58.03;32.53;;;;;;;1.56;82.41;97985.53;5084233;27;20095;-61
2022/01/31 07:54:44;;;;;;;61.85;33.60;;;;;;;1.75;80.92;97973.09;5078048;28;20039;-61
2022/01/31 07:57:10;;;;;;;56.25;32.60;;;;;;;1.51;82.07;97984.06;5097310;28;20035;-60
2022/01/31 07:59:35;;;;;;;62.20;34.38;;;;;;;1.56;82.31;97998.34;5098779;28;20020;-60
2022/01/31 08:02:01;;;;;;;54.92;33.40;;;;;;;1.79;81.99;97989.91;5102663;28;20027;-60
2022/01/31 08:04:26;;;;;;;56.47;33.13;;;;;;;1.90;81.87;97997.69;5100195;28;20036;-60
2022/01/31 08:06:52;;;;;;;61.17;35.25;;;;;;;1.59;82.29;97957.94;5101984;28;20058;-60
2022/01/31 08:09:17;;;;;;;61.05;35.55;;;;;;;1.08;82.44;97879.41;5073629;28;20028;-60
2022/01/31 08:11:42;;;;;;;55.60;32.85;;;;;;;2.02;82.45;97984.94;5101203;28;20489;-60
2022/01/31 08:14:10;;;;;;;58.72;33.65;;;;;;;1.89;82.56;97979.84;5095983;28;20020;-60
2022/01/31 08:16:37;;;;;;;67.00;33.97;;;;;;;2.05;82.61;97966.78;5093016;28;20720;-60
2022/01/31 08:19:05;;;;;;;58.13;35.50;;;;;;;1.98;83.36;97957.88;5103368;28;20103;-60
2022/01/31 08:21:30;;;;;;;53.83;33.85;;;;;;;2.12;82.69;97970.56;5080533;28;20032;-60
2022/01/31 08:23:56;;;;;;;57.17;34.75;;;;;;;1.79;82.86;97925.00;5100409;28;20030;-60
2022/01/31 08:26:21;;;;;;;58.40;33.97;;;;;;;2.30;81.75;97971.84;5082531;28;20471;-60
2022/01/31 08:31:46;;;;;;;56.95;33.55;;;;;;;2.37;81.36;97950.88;5088258;28;20039;-60
2022/01/31 08:36:42;;;;;;;56.70;33.97;;;;;;;2.06;80.92;97869.22;5093009;28;20039;-60
2022/01/31 08:39:17;;;;;;;54.35;33.92;;;;;;;2.75;80.38;97955.00;5099711;28;20074;-60
2022/01/31 08:41:43;;;;;;;55.58;35.25;;;;;;;2.48;80.20;97908.13;5082060;28;20043;-61
2022/01/31 08:44:17;;;;;;;58.65;34.45;;;;;;;2.71;80.25;97954.41;5101060;28;20072;-61
2022/01/31 08:46:43;;;;;;;56.42;33.95;;;;;;;2.71;80.76;97941.56;5073969;28;20024;-61
2022/01/31 08:49:09;;;;;;;61.80;34.65;;;;;;;2.88;79.93;97928.31;5092185;28;20502;-60
2022/01/31 08:51:35;;;;;;;60.25;34.75;;;;;;;2.62;79.90;97896.84;5101152;28;20032;-60
2022/01/31 08:54:02;;;;;;;57.92;34.65;;;;;;;2.61;79.53;97878.97;5077278;27;20056;-60
2022/01/31 08:56:27;;;;;;;60.90;34.22;;;;;;;2.57;79.90;97880.13;5090519;28;20024;-60
2022/01/31 08:58:53;;;;;;;60.60;36.35;;;;;;;2.49;80.94;97878.94;5092459;28;20031;-60
2022/01/31 09:01:21;;;;;;;56.55;35.60;;;;;;;2.67;82.01;97897.31;5081022;27;20085;-60
2022/01/31 09:06:18;;;;;;;61.70;35.25;;;;;;;3.03;83.20;97931.50;5096069;28;20027;-60
2022/01/31 09:08:44;;;;;;;55.70;34.88;;;;;;;3.05;83.80;97939.09;5101636;28;20035;-60
2022/01/31 09:11:09;;;;;;;59.70;36.83;;;;;;;3.04;84.16;97917.72;5088925;28;20029;-60
2022/01/31 09:13:36;;;;;;;61.17;37.53;;;;;;;3.09;84.22;97922.53;5086074;28;20024;-60
2022/01/31 09:16:02;;;;;;;60.38;38.10;;;;;;;2.82;84.21;97856.84;5087368;28;20023;-60
2022/01/31 09:18:28;;;;;;;58.95;35.08;;;;;;;3.18;83.36;97911.56;5112169;27;20027;-60
2022/01/31 09:20:54;;;;;;;55.95;33.67;;;;;;;3.23;82.21;97895.78;5100375;28;20035;-60
2022/01/31 09:23:19;;;;;;;57.22;33.92;;;;;;;3.26;81.95;97886.09;5090499;28;20027;-60
2022/01/31 09:25:46;;;;;;;54.70;35.08;;;;;;;3.45;81.12;97903.50;5100673;28;20115;-60
2022/01/31 09:28:13;;;;;;;53.83;32.83;;;;;;;3.37;81.03;97859.56;5090208;28;20077;-61
2022/01/31 09:30:39;;;;;;;50.38;30.48;;;;;;;3.43;80.42;97860.84;5095031;28;20035;-60
2022/01/31 09:33:05;;;;;;;53.72;33.13;;;;;;;3.48;80.49;97856.19;5085910;28;20024;-61
2022/01/31 09:35:30;;;;;;;53.85;33.05;;;;;;;3.58;80.37;97851.97;5092961;28;20493;-60
2022/01/31 09:37:56;;;;;;;52.30;32.25;;;;;;;3.37;79.93;97808.19;5090842;28;20032;-60
2022/01/31 09:40:23;;;;;;;51.05;32.00;;;;;;;3.66;79.64;97853.94;5103194;28;20038;-61
2022/01/31 09:45:52;;;;;;;52.97;31.17;;;;;;;3.80;78.95;97845.97;5090206;28;20501;-60
2022/01/31 09:51:07;;;;;;;50.97;30.58;;;;;;;3.72;78.91;97832.88;5082725;28;21736;-60
2022/01/31 09:53:36;;;;;;;49.03;30.05;;;;;;;3.76;79.05;97826.59;5084787;28;20461;-60
2022/01/31 09:56:03;;;;;;;52.70;30.00;;;;;;;3.49;79.42;97775.56;5091179;28;20536;-60
2022/01/31 09:58:29;;;;;;;50.17;31.23;;;;;;;3.84;79.41;97793.34;5099010;28;20470;-60
2022/01/31 10:01:10;;;;;;;50.10;30.90;;;;;;;3.65;79.33;97758.00;5096630;28;20028;-60
2022/01/31 10:03:49;;;;;;;52.85;30.60;;;;;;;3.89;78.44;97807.59;5076217;27;20054;-60
2022/01/31 10:06:26;;;;;;;49.72;30.02;;;;;;;3.87;78.16;97791.47;5102768;28;20132;-60
2022/01/31 10:09:13;;;;;;;51.95;30.52;;;;;;;3.96;78.61;97788.16;5079917;28;20771;-60
2022/01/31 10:12:06;;;;;;;54.75;31.70;;;;;;;4.15;77.68;97792.66;5090700;28;20506;-60
2022/01/31 10:17:40;;;;;;;48.95;31.50;;;;;;;4.14;76.90;97726.69;5087824;28;20660;-61
2022/01/31 10:20:30;;;;;;;53.40;31.83;;;;;;;4.57;75.49;97741.16;5100780;28;20494;-60
2022/01/31 10:22:55;;;;;;;;;;;;;;;4.65;75.54;97750.81;5084005;28;20024;-60
2022/01/31 10:25:23;;;;;;;47.50;28.73;;;;;;;4.71;74.97;97755.44;5091493;28;19918;-61
2022/01/31 10:27:53;;;;;;;50.78;30.50;;;;;;;4.43;74.74;97696.81;5069775;28;20028;-61
2022/01/31 10:30:24;;;;;;;54.42;31.27;;;;;;;4.98;73.33;97744.56;5094875;28;20111;-60
2022/01/31 10:32:49;;;;;;;50.85;31.83;;;;;;;4.77;73.06;97695.72;5092139;28;20031;-60
2022/01/31 10:35:21;;;;;;;58.70;32.83;;;;;;;5.04;73.08;97718.31;5085704;28;20481;-60
2022/01/31 10:37:48;;;;;;;53.60;32.35;;;;;;;4.99;73.63;97716.09;5071370;28;20043;-60
2022/01/31 10:53:59;;;;;;;57.80;35.35;;;;;;;5.42;74.71;97688.41;5088012;28;20482;-60
2022/01/31 10:56:34;;;;;;;56.15;34.88;;;;;;;5.42;74.63;97665.19;5094903;28;20052;-62
2022/01/31 10:59:04;;;;;;;53.67;32.90;;;;;;;5.44;74.04;97660.72;5091391;28;20117;-60
2022/01/31 11:01:30;;;;;;;;;;;;;;;5.41;73.29;97655.81;5096183;28;20756;-60
2022/01/31 11:03:56;;;;;;;56.08;33.10;;;;;;;5.33;74.17;97625.56;5089166;28;19972;-60
2022/01/31 11:06:23;;;;;;;58.42;34.03;;;;;;;5.14;74.48;97607.50;5091808;28;20016;-60
2022/01/31 11:08:50;;;;;;;55.35;33.85;;;;;;;5.45;74.12;97615.91;5076755;28;20035;-60
2022/01/31 11:11:15;;;;;;;51.92;32.63;;;;;;;5.60;73.55;97613.72;5083092;28;20103;-60
2022/01/31 11:13:41;;;;;;;48.63;31.67;;;;;;;5.75;73.72;97601.25;5085403;28;20034;-61
2022/01/31 11:16:09;;;;;;;48.75;31.88;;;;;;;5.63;74.44;97561.06;5101470;28;20475;-61
2022/01/31 11:18:36;;;;;;;60.72;36.60;;;;;;;6.09;74.01;97593.81;5104372;27;20448;-60
2022/01/31 11:21:03;;;;;;;55.95;33.97;;;;;;;6.04;73.93;97590.03;5097406;27;20046;-60
2022/01/31 11:23:29;;;;;;;44.35;28.02;;;;;;;5.84;75.06;97540.22;5094443;27;20024;-60
2022/01/31 11:26:01;;;;;;;34.45;18.85;;;;;;;6.49;76.16;97563.50;5091696;28;20035;-60
2022/01/31 11:28:31;;;;;;;30.27;16.98;;;;;;;6.88;76.06;97548.56;5093347;28;20047;-60
2022/01/31 11:30:57;;;;;;;29.17;16.83;;;;;;;7.07;75.41;97539.84;5105219;28;20646;-60
2022/01/31 11:33:23;;;;;;;28.88;15.30;;;;;;;7.11;75.47;97525.66;5087515;28;20028;-60
2022/01/31 11:35:49;;;;;;;22.38;13.65;;;;;;;7.51;74.97;97520.94;5087810;28;20701;-60
2022/01/31 11:38:16;;;;;;;24.40;14.45;;;;;;;7.24;75.14;97472.75;5094079;27;20036;-60
2022/01/31 11:40:41;;;;;;;23.13;12.23;;;;;;;7.57;74.54;97502.22;5094283;28;20490;-60
2022/01/31 11:43:08;;;;;;;23.65;12.20;;;;;;;7.65;74.42;97483.34;5097992;28;20038;-60
2022/01/31 11:45:38;;;;;;;23.02;12.32;;;;;;;7.40;74.61;97438.44;5098761;28;20158;-60
2022/01/31 11:48:06;;;;;;;22.42;12.88;;;;;;;7.75;74.59;97486.63;5094904;28;20080;-60
2022/01/31 11:50:42;;;;;;;18.75;11.52;;;;;;;7.77;74.64;97474.34;5088493;28;20035;-61
2022/01/31 11:53:07;;;;;;;23.35;13.15;;;;;;;7.97;73.34;97456.00;5090602;28;20110;-61
2022/01/31 11:55:35;;;;;;;23.10;12.20;;;;;;;7.91;72.77;97444.50;5090030;28;20068;-61
2022/01/31 11:58:01;;;;;;;21.00;12.07;;;;;;;7.77;73.28;97391.53;5069865;28;20055;-61